createdAt,value
2022-09-10T00:00:04.031Z,16.42
2022-09-10T00:01:04.030Z,16.38
2022-09-10T00:02:04.044Z,16.35
2022-09-10T00:03:04.024Z,16.37
2022-09-10T00:04:03.972Z,16.49
2022-09-10T00:05:03.990Z,16.40
2022-09-10T00:06:03.962Z,16.42
2022-09-10T00:07:03.947Z,16.44
2022-09-10T00:08:03.926Z,16.40
2022-09-10T00:09:03.920Z,16.35
2022-09-10T00:10:03.904Z,16.22
2022-09-10T00:11:03.910Z,16.30
2022-09-10T00:12:03.883Z,16.23
2022-09-10T00:13:03.879Z,16.33
2022-09-10T00:14:03.865Z,16.26
2022-09-10T00:15:03.857Z,16.26
2022-09-10T00:16:03.909Z,16.25
2022-09-10T00:17:03.847Z,16.23
2022-09-10T00:18:03.821Z,16.25
2022-09-10T00:19:03.816Z,16.33
2022-09-10T00:20:03.792Z,16.20
2022-09-10T00:21:03.808Z,16.27
2022-09-10T00:22:03.786Z,16.25
2022-09-10T00:23:03.765Z,16.37
2022-09-10T00:24:03.744Z,16.35
2022-09-10T00:25:08.102Z,16.48
2022-09-10T00:26:03.734Z,16.45
2022-09-10T00:27:03.728Z,16.45
2022-09-10T00:28:03.707Z,16.42
2022-09-10T00:29:03.695Z,16.49
2022-09-10T00:30:03.688Z,16.55
2022-09-10T00:31:03.738Z,16.58
2022-09-10T00:32:03.673Z,16.56
2022-09-10T00:33:03.655Z,16.56
2022-09-10T00:34:03.629Z,16.65
2022-09-10T00:35:03.647Z,16.60
2022-09-10T00:36:03.614Z,16.67
2022-09-10T00:37:03.646Z,16.63
2022-09-10T00:38:03.592Z,16.73
2022-09-10T00:39:03.574Z,16.55
2022-09-10T00:40:03.620Z,16.75
2022-09-10T00:41:03.556Z,16.71
2022-09-10T00:42:03.557Z,16.67
2022-09-10T00:43:03.528Z,16.80
2022-09-10T00:44:03.530Z,16.71
2022-09-10T00:45:03.508Z,16.78
2022-09-10T00:46:03.561Z,16.85
2022-09-10T00:47:03.497Z,16.73
2022-09-10T00:48:03.474Z,16.80
2022-09-10T00:49:03.464Z,16.78
2022-09-10T00:50:03.514Z,16.77
2022-09-10T00:51:03.446Z,16.86
2022-09-10T00:52:03.446Z,16.85
2022-09-10T00:53:03.437Z,16.83
2022-09-10T00:54:03.411Z,16.80
2022-09-10T00:55:03.394Z,16.85
2022-09-10T00:56:03.381Z,16.81
2022-09-10T00:57:03.395Z,16.77
2022-09-10T00:58:03.362Z,16.86
2022-09-10T00:59:03.354Z,16.80
2022-09-10T01:00:03.361Z,16.92
2022-09-10T01:01:03.392Z,16.83
2022-09-10T01:02:03.380Z,16.89
2022-09-10T01:03:03.312Z,16.77
2022-09-10T01:04:03.297Z,16.88
2022-09-10T01:05:03.280Z,16.74
2022-09-10T01:06:03.268Z,16.75
2022-09-10T01:07:03.282Z,16.92
2022-09-10T01:08:03.254Z,16.81
2022-09-10T01:09:03.262Z,16.67
2022-09-10T01:10:03.226Z,16.78
2022-09-10T01:11:03.219Z,16.78
2022-09-10T01:12:04.478Z,16.70
2022-09-10T01:13:03.194Z,16.74
2022-09-10T01:14:03.175Z,16.75
2022-09-10T01:15:03.166Z,16.70
2022-09-10T01:16:03.224Z,16.63
2022-09-10T01:17:03.178Z,16.67
2022-09-10T01:18:03.136Z,16.67
2022-09-10T01:19:03.119Z,16.65
2022-09-10T01:20:03.107Z,16.67
2022-09-10T01:21:03.096Z,16.71
2022-09-10T01:22:03.094Z,16.68
2022-09-10T01:23:03.076Z,16.62
2022-09-10T01:24:03.060Z,16.67
2022-09-10T01:25:03.092Z,16.63
2022-09-10T01:26:03.046Z,16.62
2022-09-10T01:27:03.053Z,16.74
2022-09-10T01:28:03.016Z,16.71
2022-09-10T01:29:03.004Z,16.68
2022-09-10T01:30:03.001Z,16.56
2022-09-10T01:31:02.991Z,16.65
2022-09-10T01:32:02.990Z,16.70
2022-09-10T01:33:02.971Z,16.67
2022-09-10T01:34:02.949Z,16.67
2022-09-10T01:35:02.947Z,16.73
2022-09-10T01:36:02.932Z,16.70
2022-09-10T01:37:02.930Z,16.70
2022-09-10T01:38:02.906Z,16.63
2022-09-10T01:39:02.894Z,16.67
2022-09-10T01:40:02.964Z,16.58
2022-09-10T01:41:02.893Z,16.70
2022-09-10T01:42:02.878Z,16.52
2022-09-10T01:43:02.850Z,16.55
2022-09-10T01:44:02.917Z,16.73
2022-09-10T01:45:02.832Z,16.59
2022-09-10T01:46:02.866Z,16.68
2022-09-10T01:47:02.819Z,16.65
2022-09-10T01:48:02.803Z,16.62
2022-09-10T01:49:02.785Z,16.67
2022-09-10T01:50:02.789Z,16.67
2022-09-10T01:51:02.761Z,16.65
2022-09-10T01:52:02.762Z,16.73
2022-09-10T01:53:02.755Z,16.71
2022-09-10T01:54:02.729Z,16.67
2022-09-10T01:55:02.718Z,16.63
2022-09-10T01:56:02.715Z,16.70
2022-09-10T01:57:02.732Z,16.71
2022-09-10T01:58:02.694Z,16.62
2022-09-10T01:59:02.677Z,16.59
2022-09-10T02:00:02.666Z,16.70
2022-09-10T02:01:02.733Z,16.70
2022-09-10T02:02:02.708Z,16.68
2022-09-10T02:03:02.636Z,16.75
2022-09-10T02:04:02.620Z,16.65
2022-09-10T02:05:02.614Z,16.58
2022-09-10T02:06:02.603Z,16.68
2022-09-10T02:07:02.608Z,16.71
2022-09-10T02:08:02.587Z,16.67
2022-09-10T02:09:02.575Z,16.68
2022-09-10T02:10:02.554Z,16.59
2022-09-10T02:11:02.541Z,16.74
2022-09-10T02:12:02.549Z,16.77
2022-09-10T02:13:02.552Z,16.68
2022-09-10T02:14:02.517Z,16.75
2022-09-10T02:15:02.503Z,16.81
2022-09-10T02:16:02.533Z,16.68
2022-09-10T02:17:02.487Z,16.71
2022-09-10T02:18:02.463Z,16.67
2022-09-10T02:19:02.467Z,16.67
2022-09-10T02:20:02.449Z,16.73
2022-09-10T02:21:02.436Z,16.67
2022-09-10T02:22:02.439Z,16.67
2022-09-10T02:23:02.411Z,16.70
2022-09-10T02:24:02.405Z,16.75
2022-09-10T02:25:02.387Z,16.75
2022-09-10T02:26:02.374Z,16.73
2022-09-10T02:27:02.393Z,16.67
2022-09-10T02:28:02.361Z,16.70
2022-09-10T02:29:02.361Z,16.77
2022-09-10T02:30:02.335Z,16.67
2022-09-10T02:31:02.326Z,16.67
2022-09-10T02:32:02.330Z,16.75
2022-09-10T02:33:02.294Z,16.77
2022-09-10T02:34:02.292Z,16.70
2022-09-10T02:35:02.288Z,16.74
2022-09-10T02:36:02.285Z,16.78
2022-09-10T02:37:02.268Z,16.80
2022-09-10T02:38:02.245Z,16.63
2022-09-10T02:39:02.225Z,16.68
2022-09-10T02:40:02.240Z,16.65
2022-09-10T02:41:02.210Z,16.77
2022-09-10T02:42:02.204Z,16.75
2022-09-10T02:43:02.185Z,16.86
2022-09-10T02:44:02.181Z,16.60
2022-09-10T02:45:02.186Z,16.78
2022-09-10T02:46:02.194Z,16.71
2022-09-10T02:47:02.149Z,16.71
2022-09-10T02:48:02.134Z,16.63
2022-09-10T02:49:02.116Z,16.68
2022-09-10T02:50:02.116Z,16.83
2022-09-10T02:51:02.102Z,16.70
2022-09-10T02:52:02.104Z,16.68
2022-09-10T02:53:02.078Z,16.63
2022-09-10T02:54:02.061Z,16.65
2022-09-10T02:55:02.057Z,16.56
2022-09-10T02:56:02.041Z,16.65
2022-09-10T02:57:02.041Z,16.65
2022-09-10T02:58:02.018Z,16.56
2022-09-10T02:59:02.011Z,16.68
2022-09-10T03:00:01.998Z,16.65
2022-09-10T03:01:02.048Z,16.60
2022-09-10T03:02:02.073Z,16.59
2022-09-10T03:03:03.212Z,16.65
2022-09-10T03:04:01.951Z,16.63
2022-09-10T03:05:02.001Z,16.62
2022-09-10T03:06:01.931Z,16.70
2022-09-10T03:07:01.934Z,16.70
2022-09-10T03:08:01.911Z,16.73
2022-09-10T03:09:01.905Z,16.67
2022-09-10T03:10:01.879Z,16.63
2022-09-10T03:11:01.867Z,16.65
2022-09-10T03:12:01.877Z,16.73
2022-09-10T03:13:01.844Z,16.68
2022-09-10T03:14:01.835Z,16.71
2022-09-10T03:15:01.855Z,16.70
2022-09-10T03:16:01.853Z,16.62
2022-09-10T03:17:01.846Z,16.65
2022-09-10T03:18:01.798Z,16.60
2022-09-10T03:19:01.777Z,16.62
2022-09-10T03:20:01.770Z,16.67
2022-09-10T03:21:01.767Z,16.62
2022-09-10T03:22:01.760Z,16.74
2022-09-10T03:23:01.744Z,16.67
2022-09-10T03:24:04.685Z,16.65
2022-09-10T03:25:01.721Z,16.77
2022-09-10T03:26:01.713Z,16.80
2022-09-10T03:27:01.734Z,16.74
2022-09-10T03:28:01.687Z,16.68
2022-09-10T03:29:01.675Z,16.75
2022-09-10T03:30:01.661Z,16.77
2022-09-10T03:31:01.678Z,16.88
2022-09-10T03:32:01.653Z,16.78
2022-09-10T03:33:01.670Z,16.83
2022-09-10T03:34:01.623Z,16.67
2022-09-10T03:35:01.604Z,16.73
2022-09-10T03:36:01.596Z,16.74
2022-09-10T03:37:01.648Z,16.86
2022-09-10T03:38:01.576Z,16.78
2022-09-10T03:39:01.560Z,16.78
2022-09-10T03:40:01.638Z,16.92
2022-09-10T03:41:01.549Z,16.81
2022-09-10T03:42:01.587Z,16.78
2022-09-10T03:43:01.533Z,16.90
2022-09-10T03:44:01.512Z,16.83
2022-09-10T03:45:01.501Z,16.78
2022-09-10T03:46:01.539Z,16.88
2022-09-10T03:47:01.485Z,16.89
2022-09-10T03:48:01.460Z,16.88
2022-09-10T03:49:01.471Z,16.96
2022-09-10T03:50:01.443Z,16.81
2022-09-10T03:51:01.431Z,16.86
2022-09-10T03:52:01.427Z,16.85
2022-09-10T03:53:01.403Z,16.95
2022-09-10T03:54:01.400Z,16.83
2022-09-10T03:55:01.388Z,16.96
2022-09-10T03:56:01.375Z,16.95
2022-09-10T03:57:01.379Z,16.95
2022-09-10T03:58:01.345Z,16.90
2022-09-10T03:59:01.337Z,16.88
2022-09-10T04:00:01.325Z,16.80
2022-09-10T04:01:01.347Z,16.96
2022-09-10T04:02:01.355Z,16.85
2022-09-10T04:03:01.325Z,16.93
2022-09-10T04:04:01.282Z,16.95
2022-09-10T04:05:01.297Z,16.96
2022-09-10T04:06:01.268Z,16.99
2022-09-10T04:07:01.267Z,16.85
2022-09-10T04:08:01.241Z,16.93
2022-09-10T04:09:01.234Z,16.86
2022-09-10T04:10:01.226Z,16.81
2022-09-10T04:11:01.201Z,16.86
2022-09-10T04:12:01.213Z,16.99
2022-09-10T04:13:01.187Z,16.81
2022-09-10T04:14:01.170Z,16.78
2022-09-10T04:15:01.167Z,16.85
2022-09-10T04:16:01.155Z,16.80
2022-09-10T04:17:01.144Z,16.98
2022-09-10T04:18:01.141Z,16.83
2022-09-10T04:19:01.124Z,16.95
2022-09-10T04:20:01.104Z,16.90
2022-09-10T04:21:01.153Z,16.92
2022-09-10T04:22:01.082Z,16.95
2022-09-10T04:23:01.082Z,16.96
2022-09-10T04:24:01.061Z,16.95
2022-09-10T04:25:01.055Z,16.93
2022-09-10T04:26:01.044Z,16.96
2022-09-10T04:27:01.033Z,16.88
2022-09-10T04:28:01.035Z,16.88
2022-09-10T04:29:01.011Z,16.92
2022-09-10T04:30:00.997Z,16.85
2022-09-10T04:31:00.981Z,16.88
2022-09-10T04:32:01.017Z,16.92
2022-09-10T04:33:00.971Z,17.04
2022-09-10T04:34:00.957Z,16.90
2022-09-10T04:35:00.940Z,16.98
2022-09-10T04:36:00.935Z,16.93
2022-09-10T04:37:00.937Z,16.92
2022-09-10T04:38:00.926Z,16.93
2022-09-10T04:39:00.906Z,16.90
2022-09-10T04:40:00.943Z,16.92
2022-09-10T04:41:00.878Z,17.04
2022-09-10T04:42:00.933Z,16.92
2022-09-10T04:43:00.867Z,16.93
2022-09-10T04:44:00.848Z,16.90
2022-09-10T04:45:00.834Z,16.93
2022-09-10T04:46:00.833Z,16.95
2022-09-10T04:47:00.812Z,16.96
2022-09-10T04:48:04.810Z,16.95
2022-09-10T04:49:01.790Z,16.95
2022-09-10T04:50:00.779Z,16.95
2022-09-10T04:51:15.817Z,17.03
2022-09-10T04:52:01.756Z,16.95
2022-09-10T04:53:00.773Z,16.90
2022-09-10T04:54:00.737Z,16.92
2022-09-10T04:55:00.776Z,16.95
2022-09-10T04:56:00.707Z,16.99
2022-09-10T04:57:00.712Z,16.98
2022-09-10T04:58:00.708Z,17.00
2022-09-10T04:59:00.680Z,16.93
2022-09-10T05:00:00.663Z,16.98
2022-09-10T05:01:00.709Z,16.99
2022-09-10T05:02:00.691Z,16.89
2022-09-10T05:03:00.643Z,16.90
2022-09-10T05:04:00.628Z,16.92
2022-09-10T05:05:00.608Z,16.96
2022-09-10T05:06:00.607Z,16.98
2022-09-10T05:07:00.585Z,16.99
2022-09-10T05:08:00.601Z,17.03
2022-09-10T05:09:00.593Z,17.00
2022-09-10T05:10:00.556Z,17.08
2022-09-10T05:11:00.548Z,17.03
2022-09-10T05:12:00.539Z,16.95
2022-09-10T05:13:00.535Z,17.00
2022-09-10T05:14:00.519Z,17.03
2022-09-10T05:15:00.505Z,17.04
2022-09-10T05:16:00.495Z,16.89
2022-09-10T05:17:00.499Z,16.98
2022-09-10T05:18:00.485Z,16.99
2022-09-10T05:19:00.466Z,16.93
2022-09-10T05:20:00.444Z,16.90
2022-09-10T05:21:00.441Z,16.89
2022-09-10T05:22:00.432Z,16.92
2022-09-10T05:23:00.429Z,16.99
2022-09-10T05:24:00.411Z,16.95
2022-09-10T05:25:00.410Z,16.90
2022-09-10T05:26:00.387Z,16.90
2022-09-10T05:27:00.376Z,16.89
2022-09-10T05:28:00.379Z,16.85
2022-09-10T05:29:00.354Z,16.80
2022-09-10T05:30:00.342Z,16.85
2022-09-10T05:31:00.323Z,16.86
2022-09-10T05:32:00.321Z,16.96
2022-09-10T05:33:00.345Z,16.98
2022-09-10T05:34:00.310Z,16.90
2022-09-10T05:35:00.293Z,16.93
2022-09-10T05:36:00.280Z,16.93
2022-09-10T05:37:00.265Z,16.88
2022-09-10T05:38:00.269Z,16.88
2022-09-10T05:39:00.242Z,16.92
2022-09-10T05:40:00.334Z,16.89
2022-09-10T05:41:00.233Z,16.95
2022-09-10T05:42:00.202Z,16.90
2022-09-10T05:43:00.205Z,16.98
2022-09-10T05:44:00.181Z,16.93
2022-09-10T05:45:00.174Z,16.92
2022-09-10T05:46:00.227Z,16.85
2022-09-10T05:47:00.149Z,16.95
2022-09-10T05:48:00.153Z,16.89
2022-09-10T05:49:00.125Z,16.93
2022-09-10T05:50:00.123Z,17.00
2022-09-10T05:51:00.108Z,17.00
2022-09-10T05:52:00.117Z,17.00
2022-09-10T05:53:00.095Z,16.98
2022-09-10T05:54:00.071Z,17.00
2022-09-10T05:55:00.070Z,17.07
2022-09-10T05:56:00.056Z,17.11
2022-09-10T05:57:00.077Z,17.06
2022-09-10T05:58:00.045Z,17.10
2022-09-10T05:59:00.021Z,17.11
2022-09-10T06:00:00.004Z,17.10
2022-09-10T06:01:00.000Z,17.11
2022-09-10T06:02:00.190Z,17.08
2022-09-10T06:03:00.100Z,17.10
2022-09-10T06:03:59.958Z,17.14
2022-09-10T06:04:59.948Z,17.23
2022-09-10T06:05:59.936Z,17.18
2022-09-10T06:06:59.927Z,17.17
2022-09-10T06:07:59.929Z,17.14
2022-09-10T06:08:59.905Z,17.17
2022-09-10T06:09:59.895Z,17.23
2022-09-10T06:10:59.883Z,17.20
2022-09-10T06:11:59.891Z,17.14
2022-09-10T06:12:59.903Z,17.20
2022-09-10T06:13:59.856Z,17.15
2022-09-10T06:14:59.839Z,17.14
2022-09-10T06:15:59.835Z,17.22
2022-09-10T06:16:59.818Z,17.13
2022-09-10T06:17:59.824Z,17.20
2022-09-10T06:18:59.803Z,17.17
2022-09-10T06:19:59.792Z,17.20
2022-09-10T06:20:59.782Z,17.17
2022-09-10T06:21:59.769Z,17.17
2022-09-10T06:22:59.763Z,17.18
2022-09-10T06:23:59.750Z,17.15
2022-09-10T06:24:59.734Z,17.20
2022-09-10T06:25:59.721Z,17.22
2022-09-10T06:26:59.714Z,17.20
2022-09-10T06:27:59.764Z,17.11
2022-09-10T06:28:59.714Z,17.23
2022-09-10T06:29:59.689Z,17.22
2022-09-10T06:30:59.697Z,17.22
2022-09-10T06:31:59.657Z,17.17
2022-09-10T06:32:59.661Z,17.22
2022-09-10T06:33:59.636Z,17.15
2022-09-10T06:34:59.625Z,17.20
2022-09-10T06:35:59.613Z,17.25
2022-09-10T06:36:59.597Z,17.22
2022-09-10T06:37:59.606Z,17.20
2022-09-10T06:38:59.576Z,17.30
2022-09-10T06:39:59.644Z,17.23
2022-09-10T06:40:59.567Z,17.26
2022-09-10T06:41:59.548Z,17.20
2022-09-10T06:42:59.548Z,17.20
2022-09-10T06:43:59.539Z,17.30
2022-09-10T06:44:59.531Z,17.13
2022-09-10T06:45:59.565Z,17.32
2022-09-10T06:49:00.564Z,17.15
2022-09-10T06:49:59.453Z,17.35
2022-09-10T06:50:59.449Z,17.36
2022-09-10T06:51:59.441Z,17.20
2022-09-10T06:52:59.446Z,17.17
2022-09-10T06:53:59.417Z,17.29
2022-09-10T06:54:59.399Z,17.25
2022-09-10T06:55:59.387Z,17.29
2022-09-10T06:56:59.380Z,17.23
2022-09-10T06:57:59.383Z,17.29
2022-09-10T06:59:02.419Z,17.22
2022-09-10T06:59:59.343Z,17.29
2022-09-10T07:00:59.401Z,17.29
2022-09-10T07:01:59.374Z,17.13
2022-09-10T07:02:59.335Z,17.23
2022-09-10T07:03:59.303Z,17.26
2022-09-10T07:04:59.295Z,17.29
2022-09-10T07:05:59.283Z,17.26
2022-09-10T07:06:59.275Z,17.30
2022-09-10T07:07:59.277Z,17.35
2022-09-10T07:08:59.252Z,17.18
2022-09-10T07:09:59.242Z,17.32
2022-09-10T07:10:59.223Z,17.33
2022-09-10T07:11:59.213Z,17.23
2022-09-10T07:12:59.226Z,17.32
2022-09-10T07:13:59.196Z,17.29
2022-09-10T07:14:59.199Z,17.38
2022-09-10T07:15:59.235Z,17.38
2022-09-10T07:16:59.186Z,17.32
2022-09-10T07:17:59.169Z,17.38
2022-09-10T07:18:59.136Z,17.40
2022-09-10T07:19:59.131Z,17.48
2022-09-10T07:20:59.116Z,17.44
2022-09-10T07:21:59.100Z,17.47
2022-09-10T07:22:59.101Z,17.50
2022-09-10T07:23:59.078Z,17.54
2022-09-10T07:24:59.073Z,17.50
2022-09-10T07:25:59.057Z,17.53
2022-09-10T07:26:59.045Z,17.54
2022-09-10T07:27:59.114Z,17.57
2022-09-10T07:28:59.027Z,17.53
2022-09-10T07:29:59.011Z,17.55
2022-09-10T07:30:59.068Z,17.55
2022-09-10T07:31:58.996Z,17.64
2022-09-10T07:32:59.016Z,17.59
2022-09-10T07:33:58.985Z,17.64
2022-09-10T07:34:58.963Z,17.78
2022-09-10T07:35:58.984Z,17.73
2022-09-10T07:36:58.941Z,17.71
2022-09-10T07:37:58.940Z,17.73
2022-09-10T07:38:58.918Z,17.71
2022-09-10T07:39:58.958Z,17.71
2022-09-10T07:40:58.886Z,17.70
2022-09-10T07:41:58.874Z,17.69
2022-09-10T07:42:58.879Z,17.67
2022-09-10T07:43:58.849Z,17.73
2022-09-10T07:44:58.847Z,17.78
2022-09-10T07:46:03.529Z,17.81
2022-09-10T07:46:59.816Z,17.76
2022-09-10T07:47:58.826Z,17.73
2022-09-10T07:48:58.825Z,17.82
2022-09-10T07:49:58.783Z,17.79
2022-09-10T07:50:58.775Z,17.79
2022-09-10T07:52:00.139Z,17.78
2022-09-10T07:52:58.766Z,17.81
2022-09-10T07:53:58.739Z,17.78
2022-09-10T07:54:58.734Z,17.79
2022-09-10T07:55:58.724Z,17.73
2022-09-10T07:56:58.711Z,17.82
2022-09-10T07:58:00.211Z,17.85
2022-09-10T07:58:58.686Z,17.84
2022-09-10T07:59:58.684Z,17.84
2022-09-10T08:00:58.676Z,17.85
2022-09-10T08:01:58.743Z,17.88
2022-09-10T08:02:58.658Z,17.92
2022-09-10T08:03:58.639Z,17.88
2022-09-10T08:04:58.647Z,17.88
2022-09-10T08:05:58.602Z,17.88
2022-09-10T08:06:58.597Z,17.89
2022-09-10T08:07:58.590Z,17.89
2022-09-10T08:08:58.567Z,17.92
2022-09-10T08:09:58.558Z,17.94
2022-09-10T08:10:58.557Z,18.00
2022-09-10T08:11:58.538Z,18.00
2022-09-10T08:12:58.541Z,18.02
2022-09-10T08:13:58.509Z,18.06
2022-09-10T08:14:58.507Z,18.12
2022-09-10T08:15:58.549Z,18.13
2022-09-10T08:16:58.478Z,18.09
2022-09-10T08:17:58.497Z,18.07
2022-09-10T08:18:58.451Z,18.19
2022-09-10T08:19:58.448Z,18.18
2022-09-10T08:20:58.457Z,18.06
2022-09-10T08:21:58.416Z,18.18
2022-09-10T08:22:58.429Z,18.18
2022-09-10T08:23:58.404Z,18.21
2022-09-10T08:24:58.383Z,18.10
2022-09-10T08:25:58.376Z,18.10
2022-09-10T08:26:58.363Z,18.15
2022-09-10T08:27:58.347Z,18.12
2022-09-10T08:28:58.357Z,18.12
2022-09-10T08:29:58.322Z,18.10
2022-09-10T08:30:58.375Z,17.99
2022-09-10T08:31:58.300Z,18.09
2022-09-10T08:32:58.300Z,18.10
2022-09-10T08:33:58.297Z,18.09
2022-09-10T08:34:58.275Z,18.12
2022-09-10T08:35:58.254Z,18.07
2022-09-10T08:36:58.265Z,18.10
2022-09-10T08:37:58.231Z,18.17
2022-09-10T08:39:02.177Z,18.12
2022-09-10T08:39:59.246Z,18.21
2022-09-10T08:40:58.197Z,18.12
2022-09-10T08:41:58.189Z,18.12
2022-09-10T08:42:58.178Z,18.24
2022-09-10T08:43:58.185Z,18.13
2022-09-10T08:44:58.176Z,18.24
2022-09-10T08:45:58.203Z,18.19
2022-09-10T08:46:58.136Z,18.28
2022-09-10T08:47:58.126Z,18.21
2022-09-10T08:48:58.129Z,18.13
2022-09-10T08:49:58.094Z,18.15
2022-09-10T08:50:58.085Z,18.25
2022-09-10T08:51:58.081Z,18.18
2022-09-10T08:52:58.083Z,18.29
2022-09-10T08:53:58.070Z,18.22
2022-09-10T08:54:58.039Z,18.27
2022-09-10T08:55:58.031Z,18.34
2022-09-10T08:56:58.018Z,18.28
2022-09-10T08:57:58.000Z,18.33
2022-09-10T08:58:58.047Z,18.42
2022-09-10T08:59:57.979Z,18.42
2022-09-10T09:00:57.975Z,18.39
2022-09-10T09:01:58.128Z,18.54
2022-09-10T09:02:58.012Z,18.55
2022-09-10T09:03:57.954Z,18.58
2022-09-10T09:04:57.931Z,18.70
2022-09-10T09:05:57.916Z,18.76
2022-09-10T09:06:57.899Z,18.76
2022-09-10T09:07:57.893Z,18.73
2022-09-10T09:08:57.914Z,18.76
2022-09-10T09:09:57.884Z,18.87
2022-09-10T09:10:57.855Z,18.99
2022-09-10T09:11:57.843Z,18.86
2022-09-10T09:12:57.832Z,19.02
2022-09-10T09:13:57.843Z,19.02
2022-09-10T09:14:57.812Z,19.01
2022-09-10T09:15:57.892Z,19.08
2022-09-10T09:16:57.787Z,19.05
2022-09-10T09:17:57.776Z,19.11
2022-09-10T09:18:57.791Z,19.11
2022-09-10T09:19:57.758Z,19.14
2022-09-10T09:20:57.748Z,19.02
2022-09-10T09:21:57.741Z,19.13
2022-09-10T09:22:57.721Z,19.05
2022-09-10T09:24:12.824Z,19.15
2022-09-10T09:24:58.728Z,19.20
2022-09-10T09:25:57.695Z,19.13
2022-09-10T09:26:57.676Z,19.18
2022-09-10T09:27:57.666Z,19.20
2022-09-10T09:28:57.674Z,19.14
2022-09-10T09:29:57.666Z,19.15
2022-09-10T09:30:57.667Z,19.20
2022-09-10T09:31:57.629Z,19.18
2022-09-10T09:32:57.626Z,19.32
2022-09-10T09:33:57.627Z,19.33
2022-09-10T09:34:57.593Z,19.33
2022-09-10T09:35:57.590Z,19.18
2022-09-10T09:36:57.565Z,19.15
2022-09-10T09:37:57.570Z,19.20
2022-09-10T09:38:57.562Z,19.17
2022-09-10T09:39:57.598Z,19.13
2022-09-10T09:40:57.540Z,18.99
2022-09-10T09:41:57.514Z,19.10
2022-09-10T09:42:57.501Z,19.06
2022-09-10T09:43:57.500Z,19.05
2022-09-10T09:44:57.516Z,19.05
2022-09-10T09:45:57.521Z,18.97
2022-09-10T09:46:57.467Z,19.08
2022-09-10T09:47:57.441Z,19.11
2022-09-10T09:48:57.451Z,19.13
2022-09-10T09:49:57.426Z,19.13
2022-09-10T09:50:57.439Z,19.17
2022-09-10T09:51:57.407Z,19.10
2022-09-10T09:52:57.415Z,19.10
2022-09-10T09:54:25.822Z,18.99
2022-09-10T09:55:15.524Z,18.84
2022-09-10T09:55:58.350Z,18.84
2022-09-10T09:56:57.373Z,18.74
2022-09-10T09:57:57.340Z,18.82
2022-09-10T09:58:57.353Z,18.80
2022-09-10T09:59:57.309Z,18.77
2022-09-10T10:00:57.304Z,18.65
2022-09-10T10:01:57.457Z,18.55
2022-09-10T10:02:57.283Z,18.72
2022-09-10T10:03:57.282Z,18.58
2022-09-10T10:04:57.252Z,18.46
2022-09-10T10:05:57.242Z,18.54
2022-09-10T10:06:57.231Z,18.49
2022-09-10T10:07:57.230Z,18.55
2022-09-10T10:08:57.220Z,18.47
2022-09-10T10:09:57.205Z,18.47
2022-09-10T10:10:57.193Z,18.39
2022-09-10T10:11:57.177Z,18.27
2022-09-10T10:12:57.191Z,18.31
2022-09-10T10:13:57.167Z,18.31
2022-09-10T10:14:57.146Z,18.27
2022-09-10T10:15:57.188Z,18.18
2022-09-10T10:17:00.603Z,18.10
2022-09-10T10:17:57.112Z,18.07
2022-09-10T10:18:57.122Z,18.09
2022-09-10T10:19:57.103Z,18.04
2022-09-10T10:20:57.084Z,18.06
2022-09-10T10:21:57.079Z,18.04
2022-09-10T10:22:57.050Z,18.06
2022-09-10T10:23:57.061Z,18.03
2022-09-10T10:24:57.027Z,18.03
2022-09-10T10:25:57.039Z,17.94
2022-09-10T10:26:57.015Z,18.09
2022-09-10T10:27:57.004Z,17.99
2022-09-10T10:28:57.029Z,17.92
2022-09-10T10:29:56.970Z,18.07
2022-09-10T10:30:56.999Z,18.02
2022-09-10T10:31:56.955Z,17.99
2022-09-10T10:32:56.937Z,18.10
2022-09-10T10:33:56.945Z,18.03
2022-09-10T10:34:56.915Z,18.15
2022-09-10T10:35:56.911Z,18.09
2022-09-10T10:36:56.891Z,18.07
2022-09-10T10:37:56.889Z,18.12
2022-09-10T10:38:56.900Z,18.09
2022-09-10T10:39:56.900Z,18.17
2022-09-10T10:40:56.849Z,18.22
2022-09-10T10:41:56.844Z,18.18
2022-09-10T10:42:56.832Z,18.21
2022-09-10T10:43:56.815Z,18.21
2022-09-10T10:44:56.845Z,18.10
2022-09-10T10:45:56.834Z,18.13
2022-09-10T10:46:56.794Z,18.12
2022-09-10T10:47:56.773Z,18.15
2022-09-10T10:48:57.850Z,18.22
2022-09-10T10:49:56.769Z,18.27
2022-09-10T10:50:56.738Z,18.34
2022-09-10T10:51:56.737Z,18.37
2022-09-10T10:52:56.717Z,18.42
2022-09-10T10:53:56.717Z,18.39
2022-09-10T10:54:56.720Z,18.46
2022-09-10T10:55:56.690Z,18.46
2022-09-10T10:56:56.683Z,18.43
2022-09-10T10:57:56.677Z,18.59
2022-09-10T10:58:56.663Z,18.58
2022-09-10T10:59:56.656Z,18.70
2022-09-10T11:00:56.662Z,18.80
2022-09-10T11:01:56.749Z,18.68
2022-09-10T11:02:56.625Z,18.80
2022-09-10T11:03:56.597Z,18.80
2022-09-10T11:04:56.602Z,18.94
2022-09-10T11:05:56.576Z,18.90
2022-09-10T11:06:56.568Z,19.06
2022-09-10T11:07:56.565Z,19.10
2022-09-10T11:08:56.541Z,19.13
2022-09-10T11:09:56.548Z,19.15
2022-09-10T11:10:56.529Z,19.14
2022-09-10T11:11:56.506Z,19.10
2022-09-10T11:12:56.506Z,19.13
2022-09-10T11:13:56.493Z,18.99
2022-09-10T11:14:56.489Z,19.02
2022-09-10T11:15:56.495Z,19.02
2022-09-10T11:16:58.741Z,18.99
2022-09-10T11:17:56.440Z,19.02
2022-09-10T11:18:56.426Z,18.97
2022-09-10T11:20:11.250Z,18.99
2022-09-10T11:20:57.403Z,19.13
2022-09-10T11:21:56.393Z,19.06
2022-09-10T11:22:56.386Z,19.10
2022-09-10T11:23:56.378Z,18.99
2022-09-10T11:24:56.381Z,19.02
2022-09-10T11:25:56.359Z,19.06
2022-09-10T11:26:56.343Z,18.99
2022-09-10T11:27:56.333Z,19.08
2022-09-10T11:28:57.305Z,19.01
2022-09-10T11:29:56.315Z,19.11
2022-09-10T11:30:56.363Z,19.05
2022-09-10T11:31:56.284Z,19.08
2022-09-10T11:32:56.296Z,18.95
2022-09-10T11:33:56.268Z,18.83
2022-09-10T11:34:56.257Z,18.68
2022-09-10T11:35:56.244Z,18.59
2022-09-10T11:36:56.235Z,18.42
2022-09-10T11:37:56.219Z,18.36
2022-09-10T11:38:56.204Z,18.28
2022-09-10T11:39:56.263Z,18.21
2022-09-10T11:40:56.187Z,18.27
2022-09-10T11:41:56.168Z,18.12
2022-09-10T11:42:56.155Z,18.13
2022-09-10T11:43:56.150Z,18.07
2022-09-10T11:44:56.163Z,18.04
2022-09-10T11:45:56.201Z,18.10
2022-09-10T11:46:56.114Z,18.21
2022-09-10T11:47:56.102Z,18.15
2022-09-10T11:48:56.114Z,18.07
2022-09-10T11:49:56.098Z,18.13
2022-09-10T11:50:56.083Z,18.13
2022-09-10T11:51:56.064Z,18.13
2022-09-10T11:52:56.043Z,18.27
2022-09-10T11:53:56.040Z,18.15
2022-09-10T11:54:56.031Z,18.21
2022-09-10T11:55:56.008Z,18.28
2022-09-10T11:56:55.995Z,18.31
2022-09-10T11:57:55.995Z,18.21
2022-09-10T11:58:55.986Z,18.29
2022-09-10T11:59:55.977Z,18.33
2022-09-10T12:00:55.954Z,18.44
2022-09-10T12:01:56.015Z,18.52
2022-09-10T12:02:55.931Z,18.55
2022-09-10T12:03:55.960Z,18.54
2022-09-10T12:04:55.939Z,18.57
2022-09-10T12:05:55.900Z,18.57
2022-09-10T12:06:55.892Z,18.57
2022-09-10T12:07:55.884Z,18.49
2022-09-10T12:08:55.869Z,18.52
2022-09-10T12:09:55.876Z,18.50
2022-09-10T12:10:55.851Z,18.49
2022-09-10T12:11:55.837Z,18.49
2022-09-10T12:12:55.825Z,18.54
2022-09-10T12:13:55.808Z,18.54
2022-09-10T12:14:55.807Z,18.52
2022-09-10T12:15:55.842Z,18.49
2022-09-10T12:16:55.783Z,18.58
2022-09-10T12:17:55.764Z,18.59
2022-09-10T12:18:55.761Z,18.54
2022-09-10T12:19:55.761Z,18.67
2022-09-10T12:20:55.753Z,18.64
2022-09-10T12:21:55.715Z,18.61
2022-09-10T12:22:55.712Z,18.83
2022-09-10T12:23:55.701Z,18.73
2022-09-10T12:24:55.707Z,18.82
2022-09-10T12:25:55.671Z,18.80
2022-09-10T12:26:55.668Z,18.83
2022-09-10T12:27:55.656Z,18.80
2022-09-10T12:28:55.649Z,18.91
2022-09-10T12:29:55.640Z,18.94
2022-09-10T12:30:55.650Z,18.92
2022-09-10T12:31:55.612Z,18.92
2022-09-10T12:32:55.595Z,18.74
2022-09-10T12:33:55.585Z,18.82
2022-09-10T12:34:55.592Z,18.84
2022-09-10T12:35:55.565Z,18.79
2022-09-10T12:36:55.571Z,18.70
2022-09-10T12:37:55.534Z,18.84
2022-09-10T12:38:55.534Z,18.77
2022-09-10T12:39:55.576Z,18.83
2022-09-10T12:40:55.507Z,18.86
2022-09-10T12:41:55.488Z,18.76
2022-09-10T12:42:55.485Z,18.84
2022-09-10T12:43:55.473Z,18.84
2022-09-10T12:44:55.476Z,18.79
2022-09-10T12:45:55.505Z,18.92
2022-09-10T12:46:55.431Z,19.15
2022-09-10T12:47:55.421Z,19.11
2022-09-10T12:48:55.442Z,19.10
2022-09-10T12:49:55.417Z,19.20
2022-09-10T12:50:55.388Z,19.28
2022-09-10T12:51:55.381Z,19.35
2022-09-10T12:52:55.395Z,19.31
2022-09-10T12:53:55.357Z,19.42